North Augusta, SC (29860)

1:54 PM EDT on August 17, 2017 (GMT -0400)
Currytowne Station | | Change Station

Elev 324 ft 33.61 °N, 82.00 °W | Updated 22 seconds ago

Partly Cloudy
Partly Cloudy
91.4 °F
Feels Like 110 °F
N
0.0
Wind Variable Wind from North
Gusts 1.3 mph

Today
High -- | Low -- °F
--% Chance of Precip.
Yesterday
High -- | Low -- °F
Precip. -- in
Pressure 30.03 in
Visibility 10.0 miles
Clouds Mostly Cloudy 4100 ft
Mostly Cloudy 5000 ft
Mostly Cloudy 9500 ft
Heat Index 110 °F
Dew Point 80 °F
Humidity 70%
Rainfall 0.00 in
Snow Depth Not available.
6:51 AM 8:11 PM
Waning Crescent, 21% visible
METAR KDNL 171653Z AUTO 31008KT 10SM BKN041 BKN050 BKN095 34/22 A3005 RMK AO2 SLP169 T03390222
Pressure 30.03 in
Visibility 10.0 miles
Clouds Mostly Cloudy 4100 ft
Mostly Cloudy 5000 ft
Mostly Cloudy 9500 ft
Heat Index 110 °F
Dew Point 80 °F
Humidity 70%
Rainfall 0.00 in
Snow Depth Not available.
6:51 AM 8:11 PM
Waning Crescent, 21% visible
METAR KDNL 171653Z AUTO 31008KT 10SM BKN041 BKN050 BKN095 34/22 A3005 RMK AO2 SLP169 T03390222

Get Severe Weather Alerts

Thanks for signing up!

Be on the lookout for a verification email in your inbox.

You'll start receiving the daily forecast at 6 AM.

×

10-Day Weather Forecast

Almanac

Astronomy

Aug. 17, 2017 Rise Set
Actual Time
Civil Twilight
Nautical Twilight
Astronomical Twilight
Moon
Length of Visible Light
Length of Day
Tomorrow will be .
, % of the Moon is Illuminated

Today's Extremes

State Highs State Lows

Community

WunderPhotos

Category 6

Welcome to Category 6. This is the collective home for Weather Underground's featured writeups by Dr. Jeff Masters (right), Bob Henson (left), Chris Burt, and other regular contributors.

Nearby

Air Quality

  Air Quality AQ Index Pollutant
Not available.

Snow Depth

Station Depth Elevation

Earthquake Activity

City Distance Mag. Time & Date
Minimum magnitude displayed is 2.5.

Coastal Water Temperatures

Place Temperature

Stations

Nearby Weather Stations

Station Location Temp. Windchill Dew Point Humidity Wind Precip. Elev Updated Type
                   

Watches & Warnings

There are currently no watches in effect.